Time;durP1;ratioP1;P1;durP2;ratioP2;P2;SDS_P1;SDS_P2;PMS_P1;PMS_P2;Temp;Humidity;BMP_temperature;BMP_pressure;BME280_temperature;BME280_humidity;BME280_pressure;Samples;Min_cycle;Max_cycle;Signal;HPM_P1;HPM_P2
2022/05/23 00:01:42;;;;;;;10.45;3.92;;;21.10;98.60;;;;;;5075923;28;20512;-74
2022/05/23 00:04:08;;;;;;;7.15;3.40;;;21.40;98.20;;;;;;5088984;28;20055;-75
2022/05/23 00:06:35;;;;;;;10.10;3.90;;;21.40;97.90;;;;;;5096346;28;20103;-74
2022/05/23 00:09:01;;;;;;;10.48;3.40;;;20.90;99.10;;;;;;5096355;28;20074;-73
2022/05/23 00:11:27;;;;;;;9.65;3.90;;;20.50;99.90;;;;;;5095719;28;20028;-73
2022/05/23 00:13:53;;;;;;;13.50;4.07;;;20.70;99.90;;;;;;5095973;28;20039;-74
2022/05/23 00:16:23;;;;;;;9.30;3.78;;;20.60;99.90;;;;;;5095947;28;20035;-74
2022/05/23 00:18:49;;;;;;;8.50;3.45;;;20.90;99.90;;;;;;5095951;28;20174;-74
2022/05/23 00:21:16;;;;;;;10.15;4.07;;;20.90;99.90;;;;;;5095898;28;20119;-74
2022/05/23 00:23:43;;;;;;;8.82;3.65;;;21.20;99.70;;;;;;5095846;28;20381;-74
2022/05/23 00:26:11;;;;;;;9.15;3.67;;;21.00;99.80;;;;;;5095659;28;20028;-74
2022/05/23 00:28:38;;;;;;;7.90;3.97;;;20.60;99.90;;;;;;5095884;28;20054;-74
2022/05/23 00:31:05;;;;;;;8.20;3.90;;;20.40;99.90;;;;;;5077462;28;20449;-74
2022/05/23 00:36:15;;;;;;;9.07;4.47;;;20.40;99.90;;;;;;5095466;28;20035;-74
2022/05/23 00:38:41;;;;;;;8.93;4.00;;;20.40;99.90;;;;;;5095613;28;20032;-73
2022/05/23 00:44:07;;;;;;;8.88;3.78;;;20.30;99.90;;;;;;5094258;28;20166;-74
2022/05/23 00:46:34;;;;;;;11.85;3.95;;;20.50;99.90;;;;;;5093959;28;20061;-74
2022/05/23 00:49:04;;;;;;;8.38;4.22;;;20.50;99.90;;;;;;5075208;28;20035;-74
2022/05/23 00:51:31;;;;;;;13.05;4.80;;;20.20;99.90;;;;;;5074972;28;20031;-74
2022/05/23 00:54:05;;;;;;;8.00;3.80;;;20.20;99.90;;;;;;5073675;28;20167;-73
2022/05/23 00:56:43;;;;;;;9.80;4.65;;;20.40;99.90;;;;;;5075305;28;20082;-74
2022/05/23 00:59:11;;;;;;;10.60;3.85;;;20.40;99.90;;;;;;5073825;28;20121;-74
2022/05/23 01:01:38;;;;;;;8.15;4.20;;;20.30;99.90;;;;;;5073504;28;20032;-74
2022/05/23 01:04:07;;;;;;;8.73;4.07;;;20.30;99.90;;;;;;5086009;28;20020;-74
2022/05/23 01:06:34;;;;;;;12.88;3.97;;;20.40;99.90;;;;;;5093720;28;20028;-74
2022/05/23 01:09:00;;;;;;;10.73;4.22;;;20.60;99.90;;;;;;5094633;28;20495;-74
2022/05/23 01:11:26;;;;;;;9.27;4.13;;;20.10;99.90;;;;;;5095157;28;20039;-74
2022/05/23 01:13:56;;;;;;;12.32;3.97;;;19.90;99.90;;;;;;5093654;28;20030;-74
2022/05/23 01:16:24;;;;;;;8.18;4.40;;;20.20;99.90;;;;;;5094880;28;20043;-74
2022/05/23 01:18:52;;;;;;;9.10;4.37;;;20.40;99.90;;;;;;5093402;28;20028;-74
2022/05/23 01:21:31;;;;;;;10.15;4.70;;;20.50;99.90;;;;;;5094801;28;20085;-74
2022/05/23 01:24:11;;;;;;;13.82;4.50;;;20.40;99.90;;;;;;5093374;28;20488;-74
2022/05/23 01:26:43;;;;;;;14.32;4.72;;;20.30;99.90;;;;;;5093538;28;20057;-74
2022/05/23 01:29:15;;;;;;;7.45;4.40;;;20.30;99.90;;;;;;5077860;28;20035;-74
2022/05/23 01:31:47;;;;;;;6.57;4.10;;;20.30;99.90;;;;;;5093358;28;20540;-74
2022/05/23 01:34:20;;;;;;;9.25;4.95;;;20.40;99.90;;;;;;5093268;28;20024;-74
2022/05/23 01:37:00;;;;;;;9.27;4.10;;;20.40;99.90;;;;;;5092743;28;20088;-74
2022/05/23 01:39:28;;;;;;;10.82;4.80;;;20.20;99.90;;;;;;5093067;28;20472;-73
2022/05/23 01:41:54;;;;;;;11.32;4.60;;;20.10;99.90;;;;;;5093162;28;20396;-73
2022/05/23 01:44:20;;;;;;;13.23;4.68;;;19.50;99.90;;;;;;5093125;28;20027;-73
2022/05/23 01:46:58;;;;;;;13.60;5.38;;;19.40;99.90;;;;;;5087944;28;20028;-74
2022/05/23 01:49:30;;;;;;;11.40;5.38;;;19.70;99.90;;;;;;5072570;28;20519;-73
2022/05/23 01:51:59;;;;;;;8.18;5.22;;;20.00;99.90;;;;;;5072389;28;20035;-74
2022/05/23 01:54:31;;;;;;;10.73;5.75;;;20.10;99.90;;;;;;5071845;28;20031;-73
2022/05/23 01:56:57;;;;;;;14.13;5.90;;;20.20;99.90;;;;;;5072447;28;20043;-73
2022/05/23 02:02:15;;;;;;;15.05;5.90;;;20.50;99.90;;;;;;5072295;28;20038;-73
2022/05/23 02:04:41;;;;;;;11.82;6.20;;;20.50;99.90;;;;;;5089867;28;20083;-73
2022/05/23 02:07:12;;;;;;;11.00;6.05;;;20.50;99.90;;;;;;5092464;28;20024;-74
2022/05/23 02:09:38;;;;;;;9.73;6.47;;;20.60;99.90;;;;;;5092445;28;20056;-73
2022/05/23 02:12:10;;;;;;;9.65;5.80;;;20.60;99.90;;;;;;5092733;28;20128;-73
2022/05/23 02:14:38;;;;;;;14.20;5.80;;;20.40;99.90;;;;;;5092513;28;20032;-73
2022/05/23 02:17:13;;;;;;;14.35;6.07;;;20.10;99.90;;;;;;5092366;28;20032;-74
2022/05/23 02:19:39;;;;;;;13.40;6.60;;;20.00;99.90;;;;;;5092479;28;20059;-73
2022/05/23 02:22:17;;;;;;;13.60;6.65;;;20.00;99.90;;;;;;5092175;28;20047;-73
2022/05/23 02:24:43;;;;;;;12.65;6.38;;;19.90;99.90;;;;;;5092423;28;20387;-73
2022/05/23 02:27:09;;;;;;;13.35;6.18;;;19.90;99.90;;;;;;5092265;28;20031;-73
2022/05/23 02:29:38;;;;;;;12.15;6.35;;;19.80;99.90;;;;;;5091688;28;20020;-74
2022/05/23 02:32:05;;;;;;;14.10;6.45;;;19.70;99.90;;;;;;5092164;28;20035;-74
2022/05/23 02:34:32;;;;;;;14.55;6.90;;;19.60;99.90;;;;;;5092143;28;20043;-73
2022/05/23 02:36:58;;;;;;;19.50;7.47;;;19.50;99.90;;;;;;5091661;28;20086;-74
2022/05/23 02:39:56;;;;;;;22.95;6.97;;;19.20;99.90;;;;;;5089460;28;20481;-74
2022/05/23 02:42:22;;;;;;;20.50;6.80;;;18.90;99.90;;;;;;5091867;28;20028;-74
2022/05/23 02:44:48;;;;;;;20.02;7.13;;;19.00;99.90;;;;;;5092122;28;20038;-73
2022/05/23 02:47:22;;;;;;;17.45;7.28;;;19.10;99.90;;;;;;5083680;28;20028;-74
2022/05/23 02:49:50;;;;;;;21.60;7.50;;;19.20;99.90;;;;;;5071441;28;20039;-74
2022/05/23 02:52:45;;;;;;;13.45;6.55;;;19.30;99.90;;;;;;5066176;28;20477;-74
2022/05/23 02:55:19;;;;;;;27.55;7.30;;;19.30;99.90;;;;;;5071456;28;20048;-74
2022/05/23 02:57:47;;;;;;;16.23;7.10;;;19.30;99.90;;;;;;5077913;28;20044;-74
2022/05/23 03:00:20;;;;;;;22.35;7.10;;;19.30;99.90;;;;;;5071261;28;20021;-74
2022/05/23 03:03:03;;;;;;;20.77;8.18;;;19.70;99.90;;;;;;5073703;28;20051;-74
2022/05/23 03:05:48;;;;;;;18.50;7.57;;;19.60;99.90;;;;;;5091348;28;20020;-74
2022/05/23 03:08:17;;;;;;;24.80;7.70;;;19.40;99.90;;;;;;5091876;28;20032;-74
2022/05/23 03:10:44;;;;;;;18.67;7.72;;;19.70;99.90;;;;;;5091653;28;20040;-74
2022/05/23 03:13:11;;;;;;;20.40;7.90;;;19.70;99.90;;;;;;5091524;28;20059;-75
2022/05/23 03:15:37;;;;;;;18.38;8.52;;;19.70;99.90;;;;;;5091253;28;20094;-74
2022/05/23 03:18:04;;;;;;;19.70;8.13;;;19.70;99.90;;;;;;5091692;28;20044;-74
2022/05/23 03:20:32;;;;;;;15.18;7.95;;;19.80;99.90;;;;;;5092709;28;20039;-74
2022/05/23 03:28:33;;;;;;;19.05;7.47;;;19.90;99.90;;;;;;5092818;28;20107;-74
2022/05/23 03:31:01;;;;;;;21.88;8.63;;;19.90;99.90;;;;;;5091545;28;20020;-74
2022/05/23 03:33:28;;;;;;;18.95;7.55;;;19.70;99.90;;;;;;5091078;28;20035;-74
2022/05/23 03:35:54;;;;;;;23.00;8.20;;;19.50;99.90;;;;;;5091296;28;20530;-74
2022/05/23 03:38:21;;;;;;;23.45;7.70;;;19.40;99.90;;;;;;5092474;28;20047;-74
2022/05/23 03:40:47;;;;;;;18.92;7.55;;;19.40;99.90;;;;;;5091187;28;20063;-74
2022/05/23 03:43:14;;;;;;;17.15;7.95;;;19.40;99.90;;;;;;5092670;28;20059;-74
2022/05/23 03:45:40;;;;;;;22.80;7.65;;;19.30;99.90;;;;;;5091303;28;20024;-74
2022/05/23 03:48:10;;;;;;;13.77;7.03;;;19.40;99.90;;;;;;5070696;28;20024;-75
2022/05/23 03:50:37;;;;;;;17.02;7.28;;;19.30;99.90;;;;;;5087641;28;20028;-74
2022/05/23 03:53:06;;;;;;;15.65;7.50;;;19.20;99.90;;;;;;5071088;28;20103;-74
2022/05/23 03:55:33;;;;;;;16.15;7.93;;;19.30;99.90;;;;;;5087949;28;20209;-74
2022/05/23 03:58:31;;;;;;;14.50;7.18;;;19.00;99.90;;;;;;5066685;28;20409;-74
2022/05/23 04:01:22;;;;;;;18.70;7.65;;;18.80;99.90;;;;;;5087640;28;20170;-74
2022/05/23 04:03:54;;;;;;;21.33;8.18;;;18.80;99.90;;;;;;5061659;28;20036;-74
2022/05/23 04:06:20;;;;;;;15.25;7.68;;;19.10;99.90;;;;;;5087538;28;20066;-74
2022/05/23 04:09:05;;;;;;;21.50;8.10;;;19.20;99.90;;;;;;5087695;28;20025;-74
2022/05/23 04:11:32;;;;;;;17.90;9.63;;;19.30;99.90;;;;;;5087635;28;20069;-74
2022/05/23 04:14:00;;;;;;;20.45;8.27;;;19.40;99.90;;;;;;5087701;28;20036;-74
2022/05/23 04:16:30;;;;;;;25.83;9.20;;;19.30;99.90;;;;;;5087934;28;20029;-74
2022/05/23 04:18:56;;;;;;;16.50;7.93;;;19.10;99.90;;;;;;5074443;28;20067;-74
2022/05/23 04:21:24;;;;;;;17.67;8.63;;;19.10;99.90;;;;;;5074319;28;20495;-74
2022/05/23 04:23:50;;;;;;;17.67;9.32;;;19.10;99.90;;;;;;5074670;28;20101;-74
2022/05/23 04:26:17;;;;;;;23.33;8.60;;;18.90;99.90;;;;;;5090976;28;20025;-74
2022/05/23 04:28:43;;;;;;;20.00;8.13;;;18.80;99.90;;;;;;5075885;28;20143;-74
2022/05/23 04:31:10;;;;;;;14.35;7.68;;;18.60;99.90;;;;;;5090712;28;20111;-74
2022/05/23 04:36:50;;;;;;;15.52;7.60;;;18.70;99.90;;;;;;5090440;28;20048;-74
2022/05/23 04:39:23;;;;;;;17.23;8.02;;;18.80;99.90;;;;;;5090948;28;20085;-74
2022/05/23 04:41:49;;;;;;;25.25;8.98;;;18.80;99.90;;;;;;5073997;28;20113;-74
2022/05/23 04:44:15;;;;;;;15.63;7.90;;;18.90;99.90;;;;;;5074106;28;20082;-74
2022/05/23 04:49:41;;;;;;;18.92;8.38;;;18.90;99.90;;;;;;5092895;28;20035;-74
2022/05/23 04:49:50;;;;;;;19.95;8.30;;;18.80;99.90;;;;;;5093830;28;20035;-74
2022/05/23 04:52:34;;;;;;;21.75;7.93;;;18.90;99.90;;;;;;5095424;28;20400;-74
2022/05/23 04:55:00;;;;;;;25.15;8.32;;;19.00;99.90;;;;;;5094229;28;20028;-74
2022/05/23 04:57:26;;;;;;;17.02;8.27;;;19.10;99.90;;;;;;5093830;28;20032;-74
2022/05/23 04:59:52;;;;;;;19.23;8.75;;;19.20;99.90;;;;;;5093990;28;20388;-74
2022/05/23 05:02:21;;;;;;;19.55;8.07;;;19.20;99.90;;;;;;5093784;28;20039;-74
2022/05/23 05:04:52;;;;;;;18.10;8.55;;;19.20;99.90;;;;;;5093786;28;20020;-74
2022/05/23 05:07:18;;;;;;;19.15;8.65;;;19.20;99.90;;;;;;5093724;28;20028;-74
2022/05/23 05:09:44;;;;;;;28.33;9.38;;;19.10;99.90;;;;;;5095175;28;20032;-74
2022/05/23 05:12:09;;;;;;;20.02;9.40;;;18.90;99.90;;;;;;5093686;28;20035;-74
2022/05/23 05:14:40;;;;;;;21.60;8.75;;;18.90;99.90;;;;;;5093177;28;20024;-74
2022/05/23 05:17:08;;;;;;;19.15;8.85;;;18.90;99.90;;;;;;5093226;28;20545;-74
2022/05/23 05:19:35;;;;;;;16.65;9.30;;;18.90;99.90;;;;;;5093551;28;20023;-74
2022/05/23 05:22:26;;;;;;;18.17;8.80;;;19.10;99.90;;;;;;5094581;28;20039;-74
2022/05/23 05:25:17;;;;;;;18.95;8.57;;;19.10;99.90;;;;;;5088744;28;20031;-74
2022/05/23 05:27:54;;;;;;;25.08;9.55;;;19.20;99.90;;;;;;5093296;28;20085;-74
2022/05/23 05:30:21;;;;;;;20.70;8.45;;;19.30;99.90;;;;;;5093062;28;20407;-74
2022/05/23 05:32:53;;;;;;;19.23;8.55;;;19.60;99.90;;;;;;5093209;28;20097;-74
2022/05/23 05:35:38;;;;;;;17.15;10.20;;;19.40;99.90;;;;;;5093265;28;20027;-74
2022/05/23 05:38:16;;;;;;;21.15;9.48;;;19.30;99.90;;;;;;5094413;28;20042;-74
2022/05/23 05:40:46;;;;;;;20.52;8.65;;;19.40;99.90;;;;;;5094611;28;20036;-74
2022/05/23 05:43:26;;;;;;;15.63;8.20;;;19.40;99.90;;;;;;5093663;28;20538;-74
2022/05/23 05:45:59;;;;;;;21.55;9.45;;;19.30;99.90;;;;;;5093155;28;20101;-74
2022/05/23 05:48:42;;;;;;;20.23;8.52;;;19.30;99.90;;;;;;5074122;28;20114;-74
2022/05/23 05:51:10;;;;;;;19.73;8.95;;;19.50;99.90;;;;;;5072526;28;20020;-74
2022/05/23 05:53:42;;;;;;;22.23;9.63;;;19.70;99.90;;;;;;5072632;28;20385;-74
2022/05/23 05:56:17;;;;;;;23.67;10.30;;;19.50;99.90;;;;;;5072273;28;20020;-75
2022/05/23 05:58:44;;;;;;;18.27;9.82;;;19.50;99.90;;;;;;5072065;28;20037;-74
2022/05/23 06:01:12;;;;;;;18.38;9.38;;;19.90;99.90;;;;;;5072479;28;20020;-74
2022/05/23 06:03:40;;;;;;;20.73;9.70;;;19.80;99.90;;;;;;5082657;28;20508;-75
2022/05/23 06:11:48;;;;;;;20.25;10.38;;;19.60;99.90;;;;;;5092501;28;20093;-74
2022/05/23 06:14:18;;;;;;;21.42;11.10;;;19.60;99.90;;;;;;5091922;28;20020;-74
2022/05/23 06:16:50;;;;;;;16.42;9.90;;;19.50;99.90;;;;;;5092329;28;20028;-74
2022/05/23 06:19:20;;;;;;;19.02;9.80;;;19.60;99.90;;;;;;5089621;28;20379;-74
2022/05/23 06:21:59;;;;;;;18.60;10.07;;;19.50;99.90;;;;;;5108801;28;20484;-74
2022/05/23 06:24:25;;;;;;;18.55;9.35;;;19.30;99.90;;;;;;5097501;28;20076;-74
2022/05/23 06:26:57;;;;;;;17.55;9.32;;;19.50;99.90;;;;;;5100814;28;20081;-74
2022/05/23 06:29:36;;;;;;;19.80;10.43;;;19.70;99.90;;;;;;5108771;28;20398;-74
2022/05/23 06:32:22;;;;;;;23.30;10.23;;;19.80;99.90;;;;;;5081027;28;20043;-74
2022/05/23 06:34:48;;;;;;;23.13;10.02;;;20.00;99.90;;;;;;5102472;28;20027;-74
2022/05/23 06:37:14;;;;;;;17.40;11.27;;;19.70;99.90;;;;;;5098719;28;20036;-74
2022/05/23 06:39:40;;;;;;;28.55;12.05;;;19.90;99.90;;;;;;5091089;28;20077;-74
2022/05/23 06:42:24;;;;;;;25.27;11.85;;;20.10;99.90;;;;;;5098965;28;20461;-74
2022/05/23 06:45:19;;;;;;;36.80;12.43;;;19.90;99.90;;;;;;5059338;28;20128;-74
2022/05/23 06:48:04;;;;;;;25.25;12.20;;;19.60;99.90;;;;;;5100699;28;20124;-74
2022/05/23 06:50:55;;;;;;;21.52;11.98;;;19.60;99.90;;;;;;5090156;28;20379;-72
2022/05/23 06:53:30;;;;;;;23.33;10.65;;;20.00;99.90;;;;;;5096376;28;20377;-75
2022/05/23 06:56:23;;;;;;;24.63;11.18;;;19.70;99.90;;;;;;5082622;28;20024;-73
2022/05/23 06:58:55;;;;;;;23.02;11.40;;;19.60;99.90;;;;;;5101040;28;20092;-75
2022/05/23 07:01:32;;;;;;;23.70;11.07;;;19.60;99.90;;;;;;5103827;28;20025;-75
2022/05/23 07:04:17;;;;;;;23.00;11.90;;;19.60;99.90;;;;;;5090202;28;20507;-74
2022/05/23 07:12:33;;;;;;;31.80;12.38;;;20.00;99.90;;;;;;5086640;28;20127;-73
2022/05/23 07:15:01;;;;;;;22.55;12.38;;;19.90;99.90;;;;;;5100147;28;20499;-74
2022/05/23 07:17:28;;;;;;;21.42;12.27;;;20.00;99.90;;;;;;5106193;28;20032;-73
2022/05/23 07:20:16;;;;;;;18.00;9.98;;;20.00;99.90;;;;;;5087777;28;20440;-73
2022/05/23 07:22:54;;;;;;;18.65;10.90;;;19.80;99.90;;;;;;5086099;28;20028;-73
2022/05/23 07:25:22;;;;;;;20.23;11.45;;;19.90;99.90;;;;;;5105272;28;20031;-73
2022/05/23 07:27:48;;;;;;;23.05;11.95;;;19.90;99.90;;;;;;5094503;28;20028;-73
2022/05/23 07:30:14;;;;;;;18.35;11.05;;;20.10;99.90;;;;;;5106686;28;20080;-74
2022/05/23 07:32:48;;;;;;;25.02;12.82;;;20.10;99.90;;;;;;5100504;28;20020;-73
2022/05/23 07:35:21;;;;;;;22.10;11.60;;;20.00;99.90;;;;;;5097011;28;20024;-74
2022/05/23 07:37:49;;;;;;;16.33;10.82;;;20.20;99.90;;;;;;5107872;28;20062;-73
2022/05/23 07:40:18;;;;;;;21.88;11.32;;;19.90;99.90;;;;;;5095874;28;20055;-74
2022/05/23 07:42:54;;;;;;;22.15;10.40;;;19.80;99.90;;;;;;5100731;28;20078;-74
2022/05/23 07:45:20;;;;;;;17.65;10.63;;;19.90;99.90;;;;;;5106073;28;20515;-73
2022/05/23 07:47:49;;;;;;;18.48;11.57;;;20.10;99.90;;;;;;5094264;28;20445;-74
2022/05/23 07:50:22;;;;;;;21.02;11.15;;;20.50;99.90;;;;;;5103583;28;20032;-73
2022/05/23 08:01:08;;;;;;;18.67;11.77;;;21.20;99.90;;;;;;5099754;28;20036;-74
2022/05/23 08:03:34;;;;;;;26.70;11.63;;;21.30;99.90;;;;;;5081226;28;20020;-73
2022/05/23 08:06:20;;;;;;;27.65;12.13;;;21.70;99.90;;;;;;5086075;28;20031;-74
2022/05/23 08:08:47;;;;;;;25.83;11.50;;;22.10;99.90;;;;;;5105537;28;20042;-73
2022/05/23 08:11:13;;;;;;;28.45;12.32;;;22.10;99.90;;;;;;5107209;28;20028;-73
2022/05/23 08:14:01;;;;;;;26.17;11.68;;;22.00;99.90;;;;;;5094170;28;20453;-73
2022/05/23 08:16:30;;;;;;;29.63;10.93;;;22.00;99.90;;;;;;5087221;28;20036;-73
2022/05/23 08:18:58;;;;;;;26.48;10.18;;;21.70;99.90;;;;;;5103707;28;20055;-73
2022/05/23 08:21:24;;;;;;;24.42;10.45;;;22.20;99.90;;;;;;5090534;28;20074;-73
2022/05/23 08:23:50;;;;;;;27.13;9.27;;;22.60;99.90;;;;;;5108421;28;20028;-74
2022/05/23 08:26:21;;;;;;;14.68;8.55;;;23.20;99.90;;;;;;5099573;28;20498;-73
2022/05/23 08:28:49;;;;;;;24.60;8.30;;;23.20;99.90;;;;;;5088206;28;20027;-74
2022/05/23 08:31:18;;;;;;;26.15;8.32;;;23.10;99.90;;;;;;5079214;28;20148;-73
2022/05/23 08:33:59;;;;;;;13.82;6.47;;;22.70;99.90;;;;;;5110927;28;20471;-72
2022/05/23 08:36:28;;;;;;;19.77;6.95;;;22.80;99.90;;;;;;5100298;28;20030;-72
2022/05/23 08:38:54;;;;;;;17.27;7.43;;;23.20;99.90;;;;;;5103635;28;20505;-73
2022/05/23 08:41:42;;;;;;;16.67;6.10;;;23.50;99.90;;;;;;5110935;28;20134;-73
2022/05/23 08:44:45;;;;;;;8.27;4.50;;;23.50;98.20;;;;;;5088417;28;20483;-73
2022/05/23 08:47:53;;;;;;;13.93;5.50;;;23.40;97.90;;;;;;5100409;28;20076;-73
2022/05/23 08:50:33;;;;;;;16.70;4.78;;;23.40;98.90;;;;;;5068207;28;20035;-73
2022/05/23 08:53:10;;;;;;;12.45;5.20;;;23.60;97.50;;;;;;5102513;28;20059;-72
2022/05/23 08:55:52;;;;;;;11.95;4.28;;;23.30;97.70;;;;;;5099911;28;20028;-73
2022/05/23 08:58:48;;;;;;;10.10;4.68;;;23.20;97.50;;;;;;5107218;28;20164;-73
2022/05/23 09:01:26;;;;;;;12.45;4.47;;;23.50;96.60;;;;;;5092901;28;20025;-71
2022/05/23 09:04:36;;;;;;;6.50;4.15;;;23.50;96.90;;;;;;5100150;28;20028;-73
2022/05/23 09:07:04;;;;;;;10.57;4.03;;;23.60;96.00;;;;;;5101291;28;20458;-73
2022/05/23 09:09:32;;;;;;;14.27;4.47;;;23.10;96.50;;;;;;5110137;28;20032;-73
2022/05/23 09:12:10;;;;;;;13.80;4.53;;;23.00;97.70;;;;;;5095498;28;20036;-73
2022/05/23 09:14:42;;;;;;;10.27;3.83;;;23.50;96.90;;;;;;5091697;28;20024;-73
2022/05/23 09:17:23;;;;;;;10.75;3.35;;;24.10;96.40;;;;;;5100944;28;20274;-73
2022/05/23 09:20:03;;;;;;;;;;;24.10;95.20;;;;;;5090654;28;20137;-73
2022/05/23 09:22:47;;;;;;;9.63;3.15;;;24.20;96.80;;;;;;5100967;28;19908;-73
2022/05/23 09:25:16;;;;;;;11.98;3.35;;;24.20;94.60;;;;;;5100429;28;20039;-73
2022/05/23 09:28:14;;;;;;;9.18;2.95;;;24.20;94.60;;;;;;5111020;28;20018;-73
2022/05/23 09:30:44;;;;;;;5.28;2.92;;;25.00;94.60;;;;;;5098196;28;20036;-73
2022/05/23 09:33:19;;;;;;;11.38;3.47;;;25.50;94.20;;;;;;5101615;28;20070;-73
2022/05/23 09:35:45;;;;;;;8.75;4.07;;;25.10;92.90;;;;;;5110662;28;20034;-73
2022/05/23 09:38:25;;;;;;;9.07;3.55;;;24.60;93.50;;;;;;5098261;28;20039;-73
2022/05/23 09:47:44;;;;;;;12.30;4.00;;;24.70;94.10;;;;;;5099553;28;20464;-72
2022/05/23 09:49:46;;;;;;;10.43;3.83;;;24.60;94.20;;;;;;5082391;28;20025;-73
2022/05/23 09:52:21;;;;;;;10.90;3.08;;;24.10;94.10;;;;;;5100596;28;20035;-73
2022/05/23 09:54:54;;;;;;;7.78;3.10;;;24.10;94.50;;;;;;5103502;28;20029;-73
2022/05/23 09:57:39;;;;;;;14.48;3.22;;;23.80;96.00;;;;;;5107775;28;20119;-73
2022/05/23 10:00:32;;;;;;;6.78;3.10;;;23.80;96.40;;;;;;5079534;28;20027;-73
2022/05/23 10:03:01;;;;;;;9.35;3.50;;;24.00;95.90;;;;;;5091258;28;20028;-73
2022/05/23 10:05:39;;;;;;;9.13;3.67;;;24.00;95.60;;;;;;5075500;28;20512;-73
2022/05/23 10:08:31;;;;;;;9.35;3.08;;;23.60;95.90;;;;;;5093143;28;20035;-73
2022/05/23 10:11:00;;;;;;;5.53;2.95;;;23.80;94.80;;;;;;5071934;28;20481;-73
2022/05/23 10:13:40;;;;;;;5.93;3.38;;;23.60;95.70;;;;;;5073081;28;20550;-73
2022/05/23 10:16:08;;;;;;;16.40;3.67;;;24.30;95.90;;;;;;5073099;28;20393;-73
2022/05/23 10:18:39;;;;;;;10.00;3.30;;;24.40;95.60;;;;;;5082221;28;20048;-73
2022/05/23 10:21:23;;;;;;;8.63;4.35;;;24.50;95.70;;;;;;5073109;28;20125;-73
2022/05/23 10:24:27;;;;;;;16.17;4.63;;;24.10;95.30;;;;;;5073434;28;20033;-73
2022/05/23 10:27:00;;;;;;;9.23;3.42;;;23.80;95.30;;;;;;5051094;28;20036;-72
2022/05/23 10:29:53;;;;;;;11.55;3.75;;;24.30;96.00;;;;;;5050760;28;20033;-71
2022/05/23 10:32:46;;;;;;;7.05;3.55;;;24.10;96.70;;;;;;5066616;28;20098;-74
2022/05/23 10:35:43;;;;;;;8.38;3.88;;;23.40;96.00;;;;;;5072255;28;20056;-76
2022/05/23 10:44:04;;;;;;;15.95;4.50;;;22.90;97.50;;;;;;5088085;28;20035;-79
2022/05/23 10:46:34;;;;;;;12.52;4.43;;;22.50;98.30;;;;;;5091497;28;20028;-77
2022/05/23 10:49:26;;;;;;;7.70;3.50;;;22.60;98.20;;;;;;5072430;28;20199;-77
2022/05/23 10:52:10;;;;;;;10.60;3.95;;;22.80;98.30;;;;;;5090399;28;20124;-78
2022/05/23 10:54:59;;;;;;;7.80;3.40;;;23.00;97.80;;;;;;5092900;28;20039;-78
2022/05/23 10:58:03;;;;;;;7.35;3.25;;;23.20;98.60;;;;;;5091697;28;20039;-78
2022/05/23 11:00:39;;;;;;;7.15;3.05;;;23.40;98.40;;;;;;5092018;28;20089;-77
2022/05/23 11:03:27;;;;;;;9.77;3.25;;;23.50;98.20;;;;;;5091102;28;20046;-76
2022/05/23 11:05:59;;;;;;;8.75;3.03;;;24.00;97.40;;;;;;5092763;28;20043;-78
2022/05/23 11:09:02;;;;;;;6.63;3.30;;;24.00;96.60;;;;;;5092911;28;20116;-77
2022/05/23 11:11:46;;;;;;;12.48;3.55;;;23.60;98.70;;;;;;5092818;28;20413;-77
2022/05/23 11:14:28;;;;;;;10.70;4.32;;;23.60;98.10;;;;;;5092818;28;20028;-77
2022/05/23 11:17:22;;;;;;;9.90;4.20;;;23.80;97.70;;;;;;5091782;28;20051;-77
2022/05/23 11:20:18;;;;;;;6.47;3.55;;;23.80;98.70;;;;;;5093085;28;20050;-76
2022/05/23 11:22:49;;;;;;;18.42;4.35;;;23.80;98.50;;;;;;5092772;28;20152;-77
2022/05/23 11:25:21;;;;;;;8.73;3.70;;;23.50;98.70;;;;;;5093245;28;20040;-76
2022/05/23 11:34:09;;;;;;;9.57;3.60;;;23.70;98.90;;;;;;5096990;28;20028;-78
2022/05/23 11:36:57;;;;;;;18.20;3.40;;;24.00;97.80;;;;;;5096643;28;20107;-77
2022/05/23 11:39:49;;;;;;;9.90;3.63;;;24.10;96.60;;;;;;5096941;28;20459;-77
2022/05/23 11:42:49;;;;;;;5.85;2.97;;;24.30;96.90;;;;;;5096944;28;20024;-77
2022/05/23 11:48:43;;;;;;;6.32;3.45;;;24.50;97.20;;;;;;5081373;28;20374;-77
2022/05/23 11:51:23;;;;;;;11.00;3.50;;;24.20;96.70;;;;;;5088391;28;20036;-77
2022/05/23 11:54:03;;;;;;;9.57;3.75;;;23.40;98.60;;;;;;5096616;28;20457;-77
2022/05/23 11:56:44;;;;;;;10.73;4.30;;;23.10;98.60;;;;;;5094916;28;20032;-77
2022/05/23 11:59:23;;;;;;;34.53;6.95;;;23.20;99.90;;;;;;5096442;28;20481;-78
2022/05/23 12:02:07;;;;;;;13.15;4.68;;;23.30;99.90;;;;;;5095996;28;20027;-78
2022/05/23 12:04:49;;;;;;;18.50;6.65;;;22.10;99.90;;;;;;5096224;28;20032;-78
2022/05/23 12:07:42;;;;;;;15.02;6.05;;;22.20;99.90;;;;;;5078113;28;20176;-78
2022/05/23 12:10:24;;;;;;;13.35;5.70;;;22.10;99.90;;;;;;5095065;28;20084;-78
2022/05/23 12:13:18;;;;;;;16.85;5.50;;;20.90;99.90;;;;;;5094730;28;20081;-77
2022/05/23 12:15:46;;;;;;;16.20;6.47;;;20.20;99.90;;;;;;5095886;28;20028;-79
2022/05/23 12:18:13;;;;;;;11.68;6.90;;;20.00;99.90;;;;;;5077877;28;20047;-79
2022/05/23 12:21:03;;;;;;;21.90;11.75;;;20.00;99.90;;;;;;5096229;28;20051;-80
2022/05/23 12:23:38;;;;;;;33.30;21.73;;;20.20;99.90;;;;;;5096013;28;20085;-79
2022/05/23 12:26:32;;;;;;;38.85;23.27;;;20.50;99.90;;;;;;5094811;28;20036;-78
2022/05/23 12:29:30;;;;;;;45.50;29.63;;;20.60;99.90;;;;;;5093372;28;20040;-79
2022/05/23 12:32:05;;;;;;;51.92;35.53;;;20.40;99.90;;;;;;5095745;28;20107;-79
2022/05/23 12:34:34;;;;;;;59.65;41.92;;;19.90;99.90;;;;;;5095781;28;20047;-79
2022/05/23 12:37:02;;;;;;;58.90;46.60;;;19.60;99.90;;;;;;5093398;28;20028;-79
2022/05/23 12:39:44;;;;;;;69.50;48.40;;;19.90;99.90;;;;;;5094535;28;20119;-79
2022/05/23 12:42:15;;;;;;;60.30;48.45;;;19.80;99.90;;;;;;5095638;28;20422;-79
2022/05/23 12:45:07;;;;;;;54.08;44.75;;;19.60;99.90;;;;;;5094095;28;20043;-78
2022/05/23 12:48:12;;;;;;;55.83;42.78;;;19.20;99.90;;;;;;5085509;28;20468;-79
2022/05/23 12:54:46;;;;;;;61.80;44.53;;;18.70;99.90;;;;;;5093442;28;20063;-79
2022/05/23 12:57:39;;;;;;;61.25;46.10;;;18.70;99.90;;;;;;5075753;28;20123;-80
2022/05/23 13:00:15;;;;;;;63.28;43.70;;;19.10;99.90;;;;;;5111830;28;20080;-79
2022/05/23 13:02:54;;;;;;;63.38;45.03;;;19.00;99.90;;;;;;5113173;28;20032;-79
2022/05/23 13:05:35;;;;;;;63.25;44.55;;;18.90;99.90;;;;;;5113326;28;20028;-80
2022/05/23 13:08:00;;;;;;;60.60;44.38;;;18.90;99.90;;;;;;5113181;28;20563;-79
2022/05/23 13:10:31;;;;;;;60.28;44.20;;;19.10;99.90;;;;;;5113254;28;20158;-79
2022/05/23 13:13:09;;;;;;;55.30;43.72;;;19.30;99.90;;;;;;5113005;28;20048;-79
2022/05/23 13:15:35;;;;;;;62.88;42.70;;;19.40;99.90;;;;;;5113104;28;20036;-79
2022/05/23 13:23:36;;;;;;;58.55;41.58;;;18.90;99.90;;;;;;5106139;28;20056;-78
2022/05/23 13:26:07;;;;;;;60.10;42.92;;;19.00;99.90;;;;;;5073465;28;20048;-78
2022/05/23 13:28:42;;;;;;;61.10;43.05;;;18.70;99.90;;;;;;5073301;28;20111;-79
2022/05/23 13:31:27;;;;;;;61.80;43.72;;;18.60;99.90;;;;;;5073915;28;20498;-79
2022/05/23 13:33:55;;;;;;;62.20;43.42;;;18.70;99.90;;;;;;5073359;28;20154;-78
2022/05/23 13:36:21;;;;;;;59.40;41.65;;;18.50;99.90;;;;;;5073099;28;20025;-78
2022/05/23 13:39:14;;;;;;;56.72;39.83;;;18.50;99.90;;;;;;5073120;28;20033;-78
2022/05/23 13:41:41;;;;;;;53.67;37.92;;;18.30;99.90;;;;;;5073115;28;20480;-79
2022/05/23 13:44:07;;;;;;;58.42;38.97;;;18.10;99.90;;;;;;5072814;28;20024;-78
2022/05/23 13:46:42;;;;;;;58.40;38.50;;;18.00;99.90;;;;;;5074052;28;20496;-78
2022/05/23 13:49:15;;;;;;;55.35;37.60;;;18.00;99.90;;;;;;5090858;28;20051;-78
2022/05/23 13:51:51;;;;;;;59.17;40.00;;;17.90;99.90;;;;;;5093465;28;20031;-79
2022/05/23 13:54:20;;;;;;;56.88;39.83;;;17.90;99.90;;;;;;5093156;28;20032;-79
2022/05/23 13:56:55;;;;;;;63.95;45.97;;;17.90;99.90;;;;;;5092873;28;20127;-78
2022/05/23 13:59:29;;;;;;;64.45;46.67;;;17.80;99.90;;;;;;5093085;28;20081;-78
2022/05/23 14:02:02;;;;;;;69.80;43.10;;;17.80;99.90;;;;;;5093370;28;20038;-78
2022/05/23 14:04:31;;;;;;;59.25;42.72;;;17.80;99.90;;;;;;5093018;28;20490;-78
2022/05/23 14:07:09;;;;;;;60.75;44.00;;;17.60;99.90;;;;;;5093155;28;20032;-78
2022/05/23 14:09:44;;;;;;;60.85;43.30;;;17.60;99.90;;;;;;5091754;28;20039;-78
2022/05/23 14:12:16;;;;;;;66.38;44.85;;;17.50;99.90;;;;;;5092768;28;20103;-78
2022/05/23 14:14:45;;;;;;;61.05;44.78;;;17.40;99.90;;;;;;5093010;28;20028;-78
2022/05/23 14:17:33;;;;;;;63.15;45.80;;;17.20;99.90;;;;;;5043097;28;1393673;-78
2022/05/23 14:20:22;;;;;;;70.50;46.10;;;17.00;99.90;;;;;;5093527;28;20027;-77
2022/05/23 14:23:11;;;;;;;70.13;49.90;;;16.80;99.90;;;;;;5093696;28;20050;-76